sensor_id;sensor_type;location;lat;lon;timestamp;pressure;altitude;pressure_sealevel;temperature;humidity
57102;BME280;42982;54.558;18.508;2023-04-08T10:38:23;101784.81;;;16.22;59.92
57102;BME280;42982;54.558;18.508;2023-04-08T10:39:24;101795.03;;;16.60;58.18
57102;BME280;42982;54.558;18.508;2023-04-08T10:40:33;101790.78;;;16.78;57.26
57102;BME280;42982;54.558;18.508;2023-04-08T10:41:47;101787.19;;;16.82;56.46
57102;BME280;42982;54.558;18.508;2023-04-08T10:42:57;101787.63;;;16.89;56.80
57102;BME280;42982;54.558;18.508;2023-04-08T10:44:03;101788.59;;;16.99;56.30
57102;BME280;42982;54.558;18.508;2023-04-08T10:45:07;101796.38;;;17.05;56.00
57102;BME280;42982;54.558;18.508;2023-04-08T10:46:15;101792.09;;;17.23;55.92
57102;BME280;42982;54.558;18.508;2023-04-08T10:47:24;101791.94;;;17.33;55.31
57102;BME280;42982;54.558;18.508;2023-04-08T10:48:27;101787.81;;;17.17;55.04
57102;BME280;42982;54.558;18.508;2023-04-08T10:49:33;101784.59;;;17.15;55.06
57102;BME280;42982;54.558;18.508;2023-04-08T10:50:37;101789.50;;;17.13;55.07
57102;BME280;42982;54.558;18.508;2023-04-08T10:51:41;101789.00;;;17.11;55.18
57102;BME280;42982;54.558;18.508;2023-04-08T10:52:53;101775.41;;;17.11;54.95
57102;BME280;42982;54.558;18.508;2023-04-08T10:54:11;101783.78;;;17.14;54.81
57102;BME280;42982;54.558;18.508;2023-04-08T10:55:22;101778.13;;;17.11;54.14
57102;BME280;42982;54.558;18.508;2023-04-08T10:56:27;101786.59;;;16.85;54.43
57102;BME280;42982;54.558;18.508;2023-04-08T10:57:33;101788.22;;;16.86;54.61
57102;BME280;42982;54.558;18.508;2023-04-08T10:58:47;101781.69;;;16.87;54.55
57102;BME280;42982;54.558;18.508;2023-04-08T10:59:52;101777.13;;;16.83;54.11
57102;BME280;42982;54.558;18.508;2023-04-08T11:00:55;101779.56;;;16.84;54.26
57102;BME280;42982;54.558;18.508;2023-04-08T11:01:57;101778.28;;;16.77;54.38
57102;BME280;42982;54.558;18.508;2023-04-08T11:03:03;101783.97;;;16.80;54.21
57102;BME280;42982;54.558;18.508;2023-04-08T11:04:12;101783.66;;;16.82;54.23
57102;BME280;42982;54.558;18.508;2023-04-08T11:05:14;101786.72;;;16.75;55.03
57102;BME280;42982;54.558;18.508;2023-04-08T11:06:20;101776.25;;;16.39;56.57
57102;BME280;42982;54.558;18.508;2023-04-08T11:07:25;101779.59;;;16.02;57.34
57102;BME280;42982;54.558;18.508;2023-04-08T11:08:28;101786.00;;;15.82;57.63
57102;BME280;42982;54.558;18.508;2023-04-08T11:09:33;101781.75;;;15.66;58.45
57102;BME280;42982;54.558;18.508;2023-04-08T11:10:38;101790.59;;;15.42;59.33
57102;BME280;42982;54.558;18.508;2023-04-08T11:11:44;101785.34;;;15.17;59.88
57102;BME280;42982;54.558;18.508;2023-04-08T11:12:52;101791.31;;;15.09;60.91
57102;BME280;42982;54.558;18.508;2023-04-08T11:14:00;101790.78;;;15.06;61.05
57102;BME280;42982;54.558;18.508;2023-04-08T11:15:03;101792.44;;;15.02;61.05
57102;BME280;42982;54.558;18.508;2023-04-08T11:16:05;101784.88;;;14.99;61.13
57102;BME280;42982;54.558;18.508;2023-04-08T11:17:09;101785.47;;;14.81;61.68
57102;BME280;42982;54.558;18.508;2023-04-08T11:18:13;101776.91;;;14.64;62.16
57102;BME280;42982;54.558;18.508;2023-04-08T11:19:16;101784.22;;;14.58;62.19
57102;BME280;42982;54.558;18.508;2023-04-08T11:20:21;101783.41;;;14.57;62.32
57102;BME280;42982;54.558;18.508;2023-04-08T11:21:26;101785.56;;;14.40;63.09
57102;BME280;42982;54.558;18.508;2023-04-08T11:22:30;101779.66;;;14.38;63.48
57102;BME280;42982;54.558;18.508;2023-04-08T11:23:37;101777.47;;;14.25;63.59
57102;BME280;42982;54.558;18.508;2023-04-08T11:24:39;101775.63;;;14.20;64.53
57102;BME280;42982;54.558;18.508;2023-04-08T11:25:45;101785.91;;;14.08;64.34
57102;BME280;42982;54.558;18.508;2023-04-08T11:26:51;101787.25;;;14.05;64.54
57102;BME280;42982;54.558;18.508;2023-04-08T11:27:57;101792.91;;;14.09;64.82
57102;BME280;42982;54.558;18.508;2023-04-08T11:29:03;101785.91;;;14.13;64.80
57102;BME280;42982;54.558;18.508;2023-04-08T11:30:10;101793.22;;;14.12;64.92
57102;BME280;42982;54.558;18.508;2023-04-08T11:31:16;101793.75;;;14.09;64.84
57102;BME280;42982;54.558;18.508;2023-04-08T11:32:19;101781.31;;;13.93;65.38
57102;BME280;42982;54.558;18.508;2023-04-08T11:33:27;101781.84;;;13.85;65.50
57102;BME280;42982;54.558;18.508;2023-04-08T11:34:40;101784.56;;;13.85;66.16
57102;BME280;42982;54.558;18.508;2023-04-08T11:35:43;101791.03;;;13.89;65.76
57102;BME280;42982;54.558;18.508;2023-04-08T11:36:52;101788.06;;;13.96;65.92
57102;BME280;42982;54.558;18.508;2023-04-08T11:37:56;101790.25;;;14.04;66.17
57102;BME280;42982;54.558;18.508;2023-04-08T11:39:06;101782.94;;;14.09;65.60
57102;BME280;42982;54.558;18.508;2023-04-08T11:40:11;101795.38;;;14.16;65.82
57102;BME280;42982;54.558;18.508;2023-04-08T11:41:15;101779.41;;;13.99;65.28
57102;BME280;42982;54.558;18.508;2023-04-08T11:42:32;101786.72;;;13.88;65.73
57102;BME280;42982;54.558;18.508;2023-04-08T11:43:37;101785.34;;;13.80;65.85
57102;BME280;42982;54.558;18.508;2023-04-08T11:44:41;101792.94;;;13.73;65.89
57102;BME280;42982;54.558;18.508;2023-04-08T11:45:46;101791.84;;;13.64;66.16
57102;BME280;42982;54.558;18.508;2023-04-08T11:46:54;101793.47;;;13.50;66.49
57102;BME280;42982;54.558;18.508;2023-04-08T11:48:09;101785.34;;;13.44;66.74
57102;BME280;42982;54.558;18.508;2023-04-08T11:49:12;101794.50;;;13.49;66.85
57102;BME280;42982;54.558;18.508;2023-04-08T11:50:25;101783.97;;;13.42;66.90
57102;BME280;42982;54.558;18.508;2023-04-08T11:51:32;101788.84;;;13.40;67.07
57102;BME280;42982;54.558;18.508;2023-04-08T11:52:46;101790.47;;;13.41;67.38
57102;BME280;42982;54.558;18.508;2023-04-08T11:53:47;101788.31;;;13.48;67.46
57102;BME280;42982;54.558;18.508;2023-04-08T11:54:54;101788.31;;;13.48;67.73
57102;BME280;42982;54.558;18.508;2023-04-08T11:56:17;101792.06;;;13.42;67.23
57102;BME280;42982;54.558;18.508;2023-04-08T11:57:27;101793.19;;;13.51;67.28
57102;BME280;42982;54.558;18.508;2023-04-08T11:58:40;101792.09;;;13.57;67.59
57102;BME280;42982;54.558;18.508;2023-04-08T11:59:45;101792.91;;;13.58;67.61
57102;BME280;42982;54.558;18.508;2023-04-08T12:00:49;101798.31;;;13.53;67.48
57102;BME280;42982;54.558;18.508;2023-04-08T12:01:55;101793.16;;;13.46;67.93
57102;BME280;42982;54.558;18.508;2023-04-08T12:03:00;101794.50;;;13.49;67.91
57102;BME280;42982;54.558;18.508;2023-04-08T12:04:03;101788.31;;;13.43;67.88
57102;BME280;42982;54.558;18.508;2023-04-08T12:05:08;101801.53;;;13.39;67.81
57102;BME280;42982;54.558;18.508;2023-04-08T12:06:14;101800.97;;;13.42;67.88
57102;BME280;42982;54.558;18.508;2023-04-08T12:07:17;101798.56;;;13.41;67.88
57102;BME280;42982;54.558;18.508;2023-04-08T12:08:24;101796.41;;;13.43;67.83
57102;BME280;42982;54.558;18.508;2023-04-08T12:09:27;101794.78;;;13.42;67.73
57102;BME280;42982;54.558;18.508;2023-04-08T12:10:29;101801.78;;;13.33;67.79
57102;BME280;42982;54.558;18.508;2023-04-08T12:11:33;101800.66;;;13.18;67.90
57102;BME280;42982;54.558;18.508;2023-04-08T12:12:37;101811.13;;;13.10;68.01
57102;BME280;42982;54.558;18.508;2023-04-08T12:13:42;101806.47;;;12.90;68.84
57102;BME280;42982;54.558;18.508;2023-04-08T12:14:48;101803.66;;;12.69;68.81
57102;BME280;42982;54.558;18.508;2023-04-08T12:15:50;101805.31;;;12.75;68.88
57102;BME280;42982;54.558;18.508;2023-04-08T12:16:53;101795.63;;;12.80;68.98
57102;BME280;42982;54.558;18.508;2023-04-08T12:17:59;101799.41;;;12.79;68.94
57102;BME280;42982;54.558;18.508;2023-04-08T12:19:06;101797.75;;;12.72;68.59
57102;BME280;42982;54.558;18.508;2023-04-08T12:20:11;101799.91;;;12.70;68.74
57102;BME280;42982;54.558;18.508;2023-04-08T12:21:13;101805.22;;;12.60;68.51
57102;BME280;42982;54.558;18.508;2023-04-08T12:22:18;101801.47;;;12.61;69.13
57102;BME280;42982;54.558;18.508;2023-04-08T12:23:23;101795.25;;;12.61;69.12
57102;BME280;42982;54.558;18.508;2023-04-08T12:24:28;101804.63;;;12.48;69.07
57102;BME280;42982;54.558;18.508;2023-04-08T12:25:33;101798.84;;;12.29;69.42
57102;BME280;42982;54.558;18.508;2023-04-08T12:26:38;101800.91;;;12.17;69.27
57102;BME280;42982;54.558;18.508;2023-04-08T12:27:49;101797.38;;;12.11;69.36
57102;BME280;42982;54.558;18.508;2023-04-08T12:28:57;101787.56;;;12.00;70.25
57102;BME280;42982;54.558;18.508;2023-04-08T12:30:00;101797.03;;;12.02;69.93
57102;BME280;42982;54.558;18.508;2023-04-08T12:31:06;101798.63;;;11.98;70.42
57102;BME280;42982;54.558;18.508;2023-04-08T12:32:09;101796.69;;;11.94;70.46
57102;BME280;42982;54.558;18.508;2023-04-08T12:33:16;101797.59;;;11.77;70.25
57102;BME280;42982;54.558;18.508;2023-04-08T12:34:22;101794.34;;;11.75;70.49
57102;BME280;42982;54.558;18.508;2023-04-08T12:35:28;101790.91;;;11.80;70.91
57102;BME280;42982;54.558;18.508;2023-04-08T12:36:32;101792.84;;;11.85;71.06
57102;BME280;42982;54.558;18.508;2023-04-08T12:37:38;101790.19;;;11.90;70.69
57102;BME280;42982;54.558;18.508;2023-04-08T12:38:41;101790.53;;;11.98;70.87
57102;BME280;42982;54.558;18.508;2023-04-08T12:39:47;101787.56;;;11.95;70.94
57102;BME280;42982;54.558;18.508;2023-04-08T12:40:53;101791.88;;;11.96;70.88
57102;BME280;42982;54.558;18.508;2023-04-08T12:41:55;101794.34;;;12.02;71.20
57102;BME280;42982;54.558;18.508;2023-04-08T12:42:57;101790.97;;;12.17;70.99
57102;BME280;42982;54.558;18.508;2023-04-08T12:44:00;101791.81;;;12.28;70.61
57102;BME280;42982;54.558;18.508;2023-04-08T12:45:10;101790.97;;;12.22;70.78
57102;BME280;42982;54.558;18.508;2023-04-08T12:46:12;101787.75;;;12.25;70.36
57102;BME280;42982;54.558;18.508;2023-04-08T12:47:20;101785.63;;;12.27;70.66
57102;BME280;42982;54.558;18.508;2023-04-08T12:49:05;101788.75;;;12.57;71.45
57102;BME280;42982;54.558;18.508;2023-04-08T12:50:08;101794.56;;;12.86;70.67
57102;BME280;42982;54.558;18.508;2023-04-08T12:51:12;101794.63;;;13.01;69.51
57102;BME280;42982;54.558;18.508;2023-04-08T12:52:16;101794.66;;;13.06;69.14
57102;BME280;42982;54.558;18.508;2023-04-08T12:53:20;101794.38;;;13.08;68.18
57102;BME280;42982;54.558;18.508;2023-04-08T12:54:23;101791.97;;;13.11;68.01
57102;BME280;42982;54.558;18.508;2023-04-08T12:55:28;101790.34;;;13.05;67.85
57102;BME280;42982;54.558;18.508;2023-04-08T12:56:34;101786.22;;;12.87;67.35
57102;BME280;42982;54.558;18.508;2023-04-08T12:57:39;101791.34;;;12.84;67.68
57102;BME280;42982;54.558;18.508;2023-04-08T12:58:44;101795.66;;;12.85;67.60
57102;BME280;42982;54.558;18.508;2023-04-08T12:59:49;101795.69;;;12.90;67.71
57102;BME280;42982;54.558;18.508;2023-04-08T13:00:51;101797.81;;;12.88;67.34
57102;BME280;42982;54.558;18.508;2023-04-08T13:01:54;101796.44;;;12.85;67.65
57102;BME280;42982;54.558;18.508;2023-04-08T13:02:57;101787.25;;;12.81;67.00
57102;BME280;42982;54.558;18.508;2023-04-08T13:03:59;101786.66;;;12.69;67.68
57102;BME280;42982;54.558;18.508;2023-04-08T13:05:05;101795.31;;;12.71;67.58
57102;BME280;42982;54.558;18.508;2023-04-08T13:06:11;101790.38;;;12.58;67.96
57102;BME280;42982;54.558;18.508;2023-04-08T13:07:14;101792.78;;;12.54;67.72
57102;BME280;42982;54.558;18.508;2023-04-08T13:08:19;101773.84;;;12.44;68.11
57102;BME280;42982;54.558;18.508;2023-04-08T13:09:24;101788.19;;;12.49;68.18
57102;BME280;42982;54.558;18.508;2023-04-08T13:10:27;101790.09;;;12.54;68.45
57102;BME280;42982;54.558;18.508;2023-04-08T13:11:34;101793.91;;;12.58;68.09
57102;BME280;42982;54.558;18.508;2023-04-08T13:12:38;101784.41;;;12.50;68.40
57102;BME280;42982;54.558;18.508;2023-04-08T13:13:40;101792.16;;;12.37;68.21
57102;BME280;42982;54.558;18.508;2023-04-08T13:14:42;101791.81;;;12.28;68.69
57102;BME280;42982;54.558;18.508;2023-04-08T13:15:44;101789.94;;;12.28;68.88
57102;BME280;42982;54.558;18.508;2023-04-08T13:16:50;101795.81;;;12.20;68.70
57102;BME280;42982;54.558;18.508;2023-04-08T13:17:58;101799.34;;;12.26;68.42
57102;BME280;42982;54.558;18.508;2023-04-08T13:19:03;101789.41;;;12.26;68.70
57102;BME280;42982;54.558;18.508;2023-04-08T13:20:11;101793.16;;;12.25;68.91
57102;BME280;42982;54.558;18.508;2023-04-08T13:21:15;101786.13;;;12.24;69.37
57102;BME280;42982;54.558;18.508;2023-04-08T13:22:20;101790.38;;;12.15;69.24
57102;BME280;42982;54.558;18.508;2023-04-08T13:23:25;101790.56;;;12.03;69.34
57102;BME280;42982;54.558;18.508;2023-04-08T13:24:32;101785.91;;;11.94;69.44
57102;BME280;42982;54.558;18.508;2023-04-08T13:25:35;101787.44;;;11.85;70.13
57102;BME280;42982;54.558;18.508;2023-04-08T13:26:42;101795.59;;;11.90;70.02
57102;BME280;42982;54.558;18.508;2023-04-08T13:27:46;101791.81;;;11.91;70.12
57102;BME280;42982;54.558;18.508;2023-04-08T13:28:48;101797.31;;;11.79;70.05
57102;BME280;42982;54.558;18.508;2023-04-08T13:29:52;101792.88;;;11.63;70.50
57102;BME280;42982;54.558;18.508;2023-04-08T13:30:56;101795.28;;;11.59;70.57
57102;BME280;42982;54.558;18.508;2023-04-08T13:31:58;101790.69;;;11.59;70.97
57102;BME280;42982;54.558;18.508;2023-04-08T13:33:02;101794.25;;;11.65;70.86
57102;BME280;42982;54.558;18.508;2023-04-08T13:34:06;101801.53;;;11.65;70.59
57102;BME280;42982;54.558;18.508;2023-04-08T13:35:09;101791.09;;;11.46;71.06
57102;BME280;42982;54.558;18.508;2023-04-08T13:36:11;101791.63;;;11.43;71.37
57102;BME280;42982;54.558;18.508;2023-04-08T13:37:14;101791.50;;;11.33;71.21
57102;BME280;42982;54.558;18.508;2023-04-08T13:38:17;101794.94;;;11.28;72.11
57102;BME280;42982;54.558;18.508;2023-04-08T13:39:22;101788.56;;;11.34;71.69
57102;BME280;42982;54.558;18.508;2023-04-08T13:40:25;101791.00;;;11.36;71.97
57102;BME280;42982;54.558;18.508;2023-04-08T13:41:31;101798.31;;;11.41;72.06
57102;BME280;42982;54.558;18.508;2023-04-08T13:42:34;101798.44;;;11.51;71.89
57102;BME280;42982;54.558;18.508;2023-04-08T13:43:38;101799.50;;;11.50;71.55
57102;BME280;42982;54.558;18.508;2023-04-08T13:44:44;101792.63;;;11.37;71.86
57102;BME280;42982;54.558;18.508;2023-04-08T13:45:48;101794.56;;;11.42;71.99
57102;BME280;42982;54.558;18.508;2023-04-08T13:46:54;101790.72;;;11.32;72.21
57102;BME280;42982;54.558;18.508;2023-04-08T13:48:04;101792.81;;;11.30;72.54
57102;BME280;42982;54.558;18.508;2023-04-08T13:49:09;101784.19;;;11.28;71.68
57102;BME280;42982;54.558;18.508;2023-04-08T13:50:11;101787.13;;;11.27;72.59
57102;BME280;42982;54.558;18.508;2023-04-08T13:51:16;101791.09;;;11.19;72.38
57102;BME280;42982;54.558;18.508;2023-04-08T13:52:21;101780.69;;;11.06;72.88
57102;BME280;42982;54.558;18.508;2023-04-08T13:53:23;101789.91;;;11.10;72.83
57102;BME280;42982;54.558;18.508;2023-04-08T13:54:30;101795.13;;;11.17;73.02
57102;BME280;42982;54.558;18.508;2023-04-08T13:55:35;101792.13;;;11.13;73.44
57102;BME280;42982;54.558;18.508;2023-04-08T13:56:40;101791.78;;;11.09;72.88
57102;BME280;42982;54.558;18.508;2023-04-08T13:57:44;101787.72;;;11.07;72.86
57102;BME280;42982;54.558;18.508;2023-04-08T13:58:51;101801.44;;;11.05;72.80
57102;BME280;42982;54.558;18.508;2023-04-08T13:59:54;101797.63;;;11.01;73.22
57102;BME280;42982;54.558;18.508;2023-04-08T14:01:00;101794.63;;;10.98;73.13
57102;BME280;42982;54.558;18.508;2023-04-08T14:02:05;101797.25;;;10.93;73.52
57102;BME280;42982;54.558;18.508;2023-04-08T14:03:09;101792.34;;;10.89;73.71
57102;BME280;42982;54.558;18.508;2023-04-08T14:04:13;101797.75;;;10.89;74.02
57102;BME280;42982;54.558;18.508;2023-04-08T14:05:16;101791.28;;;10.90;73.70
57102;BME280;42982;54.558;18.508;2023-04-08T14:06:29;101792.94;;;10.92;73.78
57102;BME280;42982;54.558;18.508;2023-04-08T14:07:34;101798.31;;;10.92;73.64
57102;BME280;42982;54.558;18.508;2023-04-08T14:08:42;101800.50;;;10.95;73.87
57102;BME280;42982;54.558;18.508;2023-04-08T14:09:44;101794.03;;;10.96;73.74
57102;BME280;42982;54.558;18.508;2023-04-08T14:10:50;101799.19;;;10.97;73.74
57102;BME280;42982;54.558;18.508;2023-04-08T14:11:53;101795.16;;;11.00;73.62
57102;BME280;42982;54.558;18.508;2023-04-08T14:12:57;101803.22;;;11.00;73.72
57102;BME280;42982;54.558;18.508;2023-04-08T14:14:00;101792.47;;;11.00;73.73
57102;BME280;42982;54.558;18.508;2023-04-08T14:15:05;101795.44;;;10.98;74.19
57102;BME280;42982;54.558;18.508;2023-04-08T14:16:12;101792.47;;;11.00;73.52
57102;BME280;42982;54.558;18.508;2023-04-08T14:17:15;101788.97;;;10.99;73.73
57102;BME280;42982;54.558;18.508;2023-04-08T14:18:17;101791.66;;;10.99;73.85
57102;BME280;42982;54.558;18.508;2023-04-08T14:19:22;101791.97;;;11.03;74.05
57102;BME280;42982;54.558;18.508;2023-04-08T14:20:26;101793.03;;;11.02;74.20
57102;BME280;42982;54.558;18.508;2023-04-08T14:21:30;101793.63;;;11.04;73.67
57102;BME280;42982;54.558;18.508;2023-04-08T14:22:37;101792.78;;;11.03;74.15
57102;BME280;42982;54.558;18.508;2023-04-08T14:23:48;101787.72;;;11.07;73.86
57102;BME280;42982;54.558;18.508;2023-04-08T14:24:55;101788.53;;;11.07;73.94
57102;BME280;42982;54.558;18.508;2023-04-08T14:26:03;101799.81;;;11.04;73.31
57102;BME280;42982;54.558;18.508;2023-04-08T14:27:06;101790.94;;;11.04;73.16
57102;BME280;42982;54.558;18.508;2023-04-08T14:28:09;101794.94;;;11.01;73.51
57102;BME280;42982;54.558;18.508;2023-04-08T14:29:12;101791.16;;;11.02;72.99
57102;BME280;42982;54.558;18.508;2023-04-08T14:30:17;101780.66;;;11.01;73.81
57102;BME280;42982;54.558;18.508;2023-04-08T14:31:28;101790.34;;;11.02;73.74
57102;BME280;42982;54.558;18.508;2023-04-08T14:32:31;101790.34;;;11.02;73.74
57102;BME280;42982;54.558;18.508;2023-04-08T14:33:36;101792.47;;;11.00;73.17
57102;BME280;42982;54.558;18.508;2023-04-08T14:34:39;101792.47;;;11.00;73.49
57102;BME280;42982;54.558;18.508;2023-04-08T14:35:47;101787.09;;;11.00;73.08
57102;BME280;42982;54.558;18.508;2023-04-08T14:36:49;101801.13;;;11.02;73.15
57102;BME280;42982;54.558;18.508;2023-04-08T14:37:55;101799.00;;;11.04;73.79
57102;BME280;42982;54.558;18.508;2023-04-08T14:38:57;101789.53;;;11.01;73.47
57102;BME280;42982;54.558;18.508;2023-04-08T14:40:04;101790.34;;;11.02;73.70
57102;BME280;42982;54.558;18.508;2023-04-08T14:41:11;101790.84;;;10.99;73.74
57102;BME280;42982;54.558;18.508;2023-04-08T14:42:25;101797.31;;;10.98;73.08
57102;BME280;42982;54.558;18.508;2023-04-08T14:43:32;101793.47;;;10.94;73.14
57102;BME280;42982;54.558;18.508;2023-04-08T14:44:35;101799.13;;;10.92;73.81
57102;BME280;42982;54.558;18.508;2023-04-08T14:45:42;101798.81;;;10.88;74.09
57102;BME280;42982;54.558;18.508;2023-04-08T14:46:45;101792.03;;;10.86;74.09
57102;BME280;42982;54.558;18.508;2023-04-08T14:47:51;101796.63;;;10.85;74.13
57102;BME280;42982;54.558;18.508;2023-04-08T14:48:54;101794.75;;;10.86;73.80
57102;BME280;42982;54.558;18.508;2023-04-08T14:49:59;101797.66;;;10.84;74.37
57102;BME280;42982;54.558;18.508;2023-04-08T14:51:01;101803.03;;;10.84;74.00
57102;BME280;42982;54.558;18.508;2023-04-08T14:52:05;101798.41;;;10.80;74.64
57102;BME280;42982;54.558;18.508;2023-04-08T14:53:06;101811.06;;;10.79;74.65
57102;BME280;42982;54.558;18.508;2023-04-08T14:54:10;101800.31;;;10.79;74.27
57102;BME280;42982;54.558;18.508;2023-04-08T14:55:14;101813.75;;;10.79;74.67
57102;BME280;42982;54.558;18.508;2023-04-08T14:56:18;101811.06;;;10.79;74.12
57102;BME280;42982;54.558;18.508;2023-04-08T14:57:21;101802.41;;;10.77;74.63
57102;BME280;42982;54.558;18.508;2023-04-08T14:58:25;101812.38;;;10.77;74.45
57102;BME280;42982;54.558;18.508;2023-04-08T14:59:28;101810.75;;;10.76;74.42
57102;BME280;42982;54.558;18.508;2023-04-08T15:00:31;101806.19;;;10.76;74.56
57102;BME280;42982;54.558;18.508;2023-04-08T15:01:38;101803.19;;;10.73;74.70
57102;BME280;42982;54.558;18.508;2023-04-08T15:02:44;101806.69;;;10.73;74.90
57102;BME280;42982;54.558;18.508;2023-04-08T15:03:47;101809.38;;;10.73;74.75
57102;BME280;42982;54.558;18.508;2023-04-08T15:04:54;101805.88;;;10.73;74.67
57102;BME280;42982;54.558;18.508;2023-04-08T15:06:01;101809.88;;;10.70;74.57
57102;BME280;42982;54.558;18.508;2023-04-08T15:07:04;101802.03;;;10.68;75.05
57102;BME280;42982;54.558;18.508;2023-04-08T15:08:12;101804.47;;;10.70;74.50
57102;BME280;42982;54.558;18.508;2023-04-08T15:09:14;101800.72;;;10.71;74.83
57102;BME280;42982;54.558;18.508;2023-04-08T15:10:20;101806.09;;;10.71;75.07
57102;BME280;42982;54.558;18.508;2023-04-08T15:11:26;101800.50;;;10.73;74.71
57102;BME280;42982;54.558;18.508;2023-04-08T15:12:44;101806.41;;;10.75;75.29
57102;BME280;42982;54.558;18.508;2023-04-08T15:13:47;101796.50;;;10.75;74.63
57102;BME280;42982;54.558;18.508;2023-04-08T15:14:53;101797.53;;;10.74;74.93
57102;BME280;42982;54.558;18.508;2023-04-08T15:15:58;101799.19;;;10.75;74.54
57102;BME280;42982;54.558;18.508;2023-04-08T15:17:04;101794.84;;;10.74;75.06
57102;BME280;42982;54.558;18.508;2023-04-08T15:18:11;101805.59;;;10.74;74.78
57102;BME280;42982;54.558;18.508;2023-04-08T15:19:17;101803.19;;;10.73;74.69
57102;BME280;42982;54.558;18.508;2023-04-08T15:20:22;101805.28;;;10.71;74.63
57102;BME280;42982;54.558;18.508;2023-04-08T15:21:33;101802.03;;;10.68;75.25
57102;BME280;42982;54.558;18.508;2023-04-08T15:22:35;101803.38;;;10.66;75.43
57102;BME280;42982;54.558;18.508;2023-04-08T15:23:38;101797.41;;;10.64;74.87
57102;BME280;42982;54.558;18.508;2023-04-08T15:24:44;101797.31;;;10.59;75.01
57102;BME280;42982;54.558;18.508;2023-04-08T15:25:47;101793.03;;;10.58;74.72
57102;BME280;42982;54.558;18.508;2023-04-08T15:26:49;101798.16;;;10.59;75.08
57102;BME280;42982;54.558;18.508;2023-04-08T15:27:54;101788.41;;;10.53;75.16
57102;BME280;42982;54.558;18.508;2023-04-08T15:28:59;101800.28;;;10.57;74.85
57102;BME280;42982;54.558;18.508;2023-04-08T15:30:02;101799.47;;;10.57;75.25
57102;BME280;42982;54.558;18.508;2023-04-08T15:31:16;101800.28;;;10.57;74.92
57102;BME280;42982;54.558;18.508;2023-04-08T15:32:29;101798.09;;;10.54;75.06
57102;BME280;42982;54.558;18.508;2023-04-08T15:33:37;101797.81;;;10.56;75.64
57102;BME280;42982;54.558;18.508;2023-04-08T15:34:44;101794.59;;;10.54;75.83
57102;BME280;42982;54.558;18.508;2023-04-08T15:35:50;101796.69;;;10.52;75.29
57102;BME280;42982;54.558;18.508;2023-04-08T15:36:55;101799.38;;;10.52;76.14
57102;BME280;42982;54.558;18.508;2023-04-08T15:37:59;101800.47;;;10.51;75.50
57102;BME280;42982;54.558;18.508;2023-04-08T15:39:09;101795.31;;;10.49;75.94
57102;BME280;42982;54.558;18.508;2023-04-08T15:40:19;101800.47;;;10.51;76.03
57102;BME280;42982;54.558;18.508;2023-04-08T15:41:23;101796.69;;;10.52;76.32
57102;BME280;42982;54.558;18.508;2023-04-08T15:42:29;101801.00;;;10.53;75.62
57102;BME280;42982;54.558;18.508;2023-04-08T15:43:51;101801.00;;;10.53;76.21
57102;BME280;42982;54.558;18.508;2023-04-08T15:44:57;101797.28;;;10.54;75.97
57102;BME280;42982;54.558;18.508;2023-04-08T15:46:01;101794.59;;;10.54;76.72
57102;BME280;42982;54.558;18.508;2023-04-08T15:47:13;101796.78;;;10.57;76.92
57102;BME280;42982;54.558;18.508;2023-04-08T15:48:20;101799.47;;;10.57;76.34
57102;BME280;42982;54.558;18.508;2023-04-08T15:49:25;101802.69;;;10.59;76.95
57102;BME280;42982;54.558;18.508;2023-04-08T15:50:33;101795.47;;;10.59;76.87
57102;BME280;42982;54.558;18.508;2023-04-08T15:51:39;101801.66;;;10.60;76.32
57102;BME280;42982;54.558;18.508;2023-04-08T15:52:45;101801.09;;;10.58;76.47
57102;BME280;42982;54.558;18.508;2023-04-08T15:53:48;101800.28;;;10.57;76.77
57102;BME280;42982;54.558;18.508;2023-04-08T15:54:56;101793.50;;;10.55;76.88
57102;BME280;42982;54.558;18.508;2023-04-08T15:55:59;101801.59;;;10.55;77.11
57102;BME280;42982;54.558;18.508;2023-04-08T15:57:14;101802.06;;;10.52;76.63
57102;BME280;42982;54.558;18.508;2023-04-08T15:59:11;101799.88;;;10.49;77.38
57102;BME280;42982;54.558;18.508;2023-04-08T16:00:15;101803.06;;;10.46;76.72
57102;BME280;42982;54.558;18.508;2023-04-08T16:01:19;101803.00;;;10.40;76.61
57102;BME280;42982;54.558;18.508;2023-04-08T16:02:22;101802.66;;;10.37;76.57
57102;BME280;42982;54.558;18.508;2023-04-08T16:03:28;101801.31;;;10.34;76.46
57102;BME280;42982;54.558;18.508;2023-04-08T16:04:33;101799.66;;;10.33;76.85
57102;BME280;42982;54.558;18.508;2023-04-08T16:05:41;101800.41;;;10.29;76.69
57102;BME280;42982;54.558;18.508;2023-04-08T16:06:47;101799.81;;;10.27;76.82
57102;BME280;42982;54.558;18.508;2023-04-08T16:07:54;101803.22;;;10.22;76.32
57102;BME280;42982;54.558;18.508;2023-04-08T16:09:02;101795.72;;;10.24;76.55
57102;BME280;42982;54.558;18.508;2023-04-08T16:10:08;101801.59;;;10.21;76.99
57102;BME280;42982;54.558;18.508;2023-04-08T16:11:14;101806.16;;;10.20;76.73
57102;BME280;42982;54.558;18.508;2023-04-08T16:12:20;101801.03;;;10.19;77.10
57102;BME280;42982;54.558;18.508;2023-04-08T16:13:27;101805.03;;;10.16;76.59
57102;BME280;42982;54.558;18.508;2023-04-08T16:14:33;101809.59;;;10.16;76.60
57102;BME280;42982;54.558;18.508;2023-04-08T16:15:35;101801.75;;;10.14;76.72
57102;BME280;42982;54.558;18.508;2023-04-08T16:16:41;101800.13;;;10.13;77.43
57102;BME280;42982;54.558;18.508;2023-04-08T16:17:49;101803.56;;;10.09;77.17